Pagrindinis puslapis
METAR-TAF:

METAR-TAF

Oro uostai :

Ankara-Güvercinlik, Turkija

platuma: 39-56N, ilguma: 032-45E, Aukštis: 819 m

Dabartinis oras

Ataskaita buvo paskelbta 8 valandos ir 4 minutes, ne 04:35 UTC
Vėjas 1 kt nuo kintamojo kryptimis
Temperatūra 1°C
Drėgmė 100%
Slėgis 1016 hPa
Matomumas: 3500 m
rūkana

METAR: LTAB 150435Z VRB01KT 3500 BR NSC 01/01 Q1016 BECMG TL0550 9999 NSW RMK RWY06 00000KT

Laikas: 15:39 (12:39 UTC)

Prognozė

Ataskaita buvo paskelbta 1 valandą ir 59 minutes, ne 10:40 UTC
Prognozė galioja nuo 15 metu 12 UTC su 15 metu 21 UTC
Vėjas 2 kt nuo kintamojo kryptimis
Matomumas 10 km arba daugiau
Išsisklaidę debesys ne aukštis 4000 ft
Su prošvaistėmis ne aukštis 20000 ft

TAF: LTAB 151040Z 1512/1521 VRB02KT 9999 SCT040 BKN200

Orai ataskaitas ir orų prognozės (METAR, TAF).

turimą stotys yra geltonos ir raudonos taškus žemėlapyje.

Perkelti pele per norėdami pamatyti stoties vardą.

Tada spustelėkite, norėdami matyti oro stebėjimo ir prognozės.

Norėdami pakeisti žemėlapį: spustelėkite ant žalios mygtukų su juodo kryžiaus žemyn,; žalią mygtuką su brūkšneliu, jei norite nutolinti; arba žalių rodyklių gretimoms žemėlapius.


METAR-TAF: